aviador You're here:

KRID Decoded Metar

in
Report Time2018-06-25 11:55:00
UTC Time2018-06-25 11:59:33
Flight Rules vfr VFR
Wind090° at 07 kt
W.Decomp.*RWY 06: 6.1 kt HW 3.5 kt RCW
RWY 15: 3.5 kt HW 6.1 kt LCW
W.Rank090° ranks 27
Current wind is above 090° avg. (6.4)
Visibility9999 m
Phenomena:N/A
Clouds:Broken 050 Hf
Broken 070 Hf
Ceiling5,000 ft
Temp18°C
Dew Point18°C (100% RH)
QNH1020 hPa
Raw Report
KRID 251155Z AUTO 09007KT 10SM BKN050 BKN070 18/18 A3013 RMK
AO2=

Extra information for KRID:More info

Social comments